Terminal Aerodrome Forecast
Issued by NWS Mt. Holly, NJ

Home | Current Version | Previous Version | Text Only | Print | Product List | Glossary On
Versions: 1 2 3 4 5 6 7 8 9 10 11 12 13
427
FTUS41 KPHI 250522
TAFRDG
TAF
KRDG 250522Z 2506/2606 21004KT P6SM SCT070 BKN200 WS020/23042KT
     FM250800 25004KT 6SM BR BKN050
      TEMPO 2510/2513 2SM BR
     FM251300 24004KT P6SM BKN060 PROB30 2518/2521 4SM -SHRA OVC035
     FM252100 31005KT P6SM OVC025 PROB30 2521/2524 2SM -SHRA OVC020
     FM260000 06008KT 4SM -RA BR OVC010=

USA.gov is the U.S. government's official web portal to all federal, state and local government web resources and services.